createdAt,value
2019-05-13T00:00:23.582Z,102586.66
2019-05-13T00:02:50.831Z,102584.91
2019-05-13T00:05:18.245Z,102589.64
2019-05-13T00:07:45.427Z,102593.17
2019-05-13T00:10:14.601Z,102588.73
2019-05-13T00:12:43.915Z,102592.08
2019-05-13T00:15:11.236Z,102587.30
2019-05-13T00:17:38.596Z,102601.19
2019-05-13T00:20:05.905Z,102594.66
2019-05-13T00:22:34.007Z,102588.84
2019-05-13T00:25:03.847Z,102592.52
2019-05-13T00:27:31.087Z,102587.20
2019-05-13T00:30:00.140Z,102590.00
2019-05-13T00:32:27.260Z,102583.41
2019-05-13T00:34:54.557Z,102596.70
2019-05-13T00:37:21.794Z,102593.43
2019-05-13T00:39:49.008Z,102597.14
2019-05-13T00:42:16.189Z,102599.98
2019-05-13T00:44:44.339Z,102595.54
2019-05-13T00:47:13.271Z,102593.36
2019-05-13T00:49:40.470Z,102605.70
2019-05-13T00:52:07.732Z,102598.92
2019-05-13T00:54:34.953Z,102603.63
2019-05-13T00:57:04.141Z,102602.56
2019-05-13T00:59:33.924Z,102599.47
2019-05-13T01:02:03.385Z,102603.95
2019-05-13T01:04:30.133Z,102604.63
2019-05-13T01:06:57.351Z,102603.72
2019-05-13T01:09:24.495Z,102607.89
2019-05-13T01:11:53.723Z,102600.17
2019-05-13T01:14:20.723Z,102610.11
2019-05-13T01:16:47.878Z,102603.32
2019-05-13T01:19:15.063Z,102603.80
2019-05-13T01:21:43.557Z,102611.72
2019-05-13T01:24:10.814Z,102607.97
2019-05-13T01:26:38.013Z,102610.95
2019-05-13T01:29:05.193Z,102610.52
2019-05-13T01:31:34.395Z,102616.87
2019-05-13T01:34:03.958Z,102610.97
2019-05-13T01:36:30.839Z,102616.44
2019-05-13T01:38:58.019Z,102613.59
2019-05-13T01:41:25.166Z,102624.03
2019-05-13T01:43:54.413Z,102623.25
2019-05-13T01:46:23.957Z,102608.55
2019-05-13T01:48:50.565Z,102615.64
2019-05-13T01:51:17.889Z,102609.22
2019-05-13T01:53:45.407Z,102625.98
2019-05-13T01:56:14.140Z,102626.34
2019-05-13T01:58:41.597Z,102626.81
2019-05-13T02:01:08.743Z,102626.58
2019-05-13T02:03:35.913Z,102631.58
2019-05-13T02:06:03.889Z,102630.51
2019-05-13T02:08:33.466Z,102638.91
2019-05-13T02:11:00.724Z,102636.18
2019-05-13T02:13:27.913Z,102633.94
2019-05-13T02:15:55.433Z,102640.61
2019-05-13T02:18:24.390Z,102641.80
2019-05-13T02:20:54.892Z,102639.67
2019-05-13T02:23:23.241Z,102640.11
2019-05-13T02:25:50.430Z,102642.89
2019-05-13T02:28:17.643Z,102636.88
2019-05-13T02:30:45.710Z,102632.78
2019-05-13T02:33:13.546Z,102642.03
2019-05-13T02:35:43.399Z,102639.95
2019-05-13T02:38:21.272Z,102634.02
2019-05-13T02:40:42.882Z,102633.00
2019-05-13T02:43:08.869Z,102633.55
2019-05-13T02:45:36.214Z,102642.00
2019-05-13T02:48:03.711Z,102645.91
2019-05-13T02:50:33.794Z,102641.94
2019-05-13T02:53:02.414Z,102649.22
2019-05-13T02:55:29.162Z,102651.87
2019-05-13T02:57:56.385Z,102641.90
2019-05-13T03:00:23.784Z,102641.00
2019-05-13T03:02:52.475Z,102636.02
2019-05-13T03:05:21.992Z,102643.87
2019-05-13T03:07:52.966Z,102642.06
2019-05-13T03:10:18.326Z,102645.09
2019-05-13T03:12:45.568Z,102645.20
2019-05-13T03:15:13.538Z,102636.81
2019-05-13T03:18:03.189Z,102634.43
2019-05-13T03:20:33.032Z,102634.48
2019-05-13T03:22:58.703Z,102645.97
2019-05-13T03:25:25.923Z,102647.80
2019-05-13T03:27:54.333Z,102647.85
2019-05-13T03:30:25.198Z,102648.98
2019-05-13T03:32:59.791Z,102644.28
2019-05-13T03:35:25.735Z,102640.20
2019-05-13T03:37:52.633Z,102639.59
2019-05-13T03:40:18.830Z,102646.55
2019-05-13T03:42:47.724Z,102650.15
2019-05-13T03:45:14.931Z,102649.05
2019-05-13T03:47:44.413Z,102649.05
2019-05-13T03:50:12.987Z,102651.80
2019-05-13T03:52:43.360Z,102667.64
2019-05-13T03:55:13.074Z,102666.86
2019-05-13T03:57:42.598Z,102670.28
2019-05-13T04:00:12.903Z,102673.11
2019-05-13T04:02:38.732Z,102677.96
2019-05-13T04:05:05.889Z,102678.28
2019-05-13T04:07:33.060Z,102681.36
2019-05-13T04:10:03.346Z,102678.75
2019-05-13T04:12:33.096Z,102683.43
2019-05-13T04:14:58.700Z,102686.66
2019-05-13T04:17:25.958Z,102678.38
2019-05-13T04:19:53.259Z,102680.38
2019-05-13T04:22:23.032Z,102677.58
2019-05-13T04:24:52.756Z,102683.79
2019-05-13T04:27:18.944Z,102681.83
2019-05-13T04:29:46.235Z,102692.20
2019-05-13T04:32:14.303Z,102692.98
2019-05-13T04:34:42.470Z,102699.44
2019-05-13T04:37:12.930Z,102697.70
2019-05-13T04:39:47.685Z,102699.55
2019-05-13T04:42:08.083Z,102703.92
2019-05-13T04:44:35.262Z,102705.20
2019-05-13T04:47:03.862Z,102716.57
2019-05-13T04:49:32.546Z,102704.61
2019-05-13T04:52:03.341Z,102697.60
2019-05-13T04:54:32.759Z,102707.83
2019-05-13T04:56:58.488Z,102707.97
2019-05-13T04:59:25.646Z,102705.14
2019-05-13T05:02:46.135Z,102693.16
2019-05-13T05:05:22.566Z,102704.13
2019-05-13T05:08:06.323Z,102708.31
2019-05-13T05:11:02.612Z,102702.90
2019-05-13T05:13:56.663Z,102707.45
2019-05-13T05:16:44.077Z,102718.59
2019-05-13T05:19:52.237Z,102714.72
2019-05-13T05:22:51.498Z,102709.92
2019-05-13T05:26:03.420Z,102717.72
2019-05-13T05:28:46.092Z,102720.33
2019-05-13T05:31:46.786Z,102728.04
2019-05-13T05:34:51.915Z,102728.98
2019-05-13T05:38:07.308Z,102733.27
2019-05-13T05:40:36.517Z,102736.09
2019-05-13T05:43:04.749Z,102730.84
2019-05-13T05:45:34.600Z,102737.95
2019-05-13T05:48:03.776Z,102732.83
2019-05-13T05:50:32.278Z,102727.47
2019-05-13T05:53:01.893Z,102728.90
2019-05-13T05:55:31.816Z,102716.72
2019-05-13T05:58:01.696Z,102728.78
2019-05-13T06:00:32.337Z,102730.30
2019-05-13T06:03:02.546Z,102728.06
2019-05-13T06:05:31.862Z,102738.64
2019-05-13T06:07:59.200Z,102734.92
2019-05-13T06:10:26.360Z,102735.40
2019-05-13T06:12:53.912Z,102733.91
2019-05-13T06:15:22.546Z,102733.86
2019-05-13T06:17:51.816Z,102732.66
2019-05-13T06:20:20.991Z,102735.70
2019-05-13T06:22:48.002Z,102733.35
2019-05-13T06:25:15.360Z,102723.93
2019-05-13T06:27:42.668Z,102728.91
2019-05-13T06:30:12.648Z,102731.08
2019-05-13T06:32:41.661Z,102737.30
2019-05-13T06:35:08.621Z,102728.54
2019-05-13T06:37:36.035Z,102736.52
2019-05-13T06:40:03.428Z,102737.28
2019-05-13T06:42:32.425Z,102730.80
2019-05-13T06:45:01.894Z,102733.11
2019-05-13T06:47:28.911Z,102730.17
2019-05-13T06:49:56.107Z,102739.54
2019-05-13T06:52:23.322Z,102739.66
2019-05-13T06:54:52.081Z,102729.02
2019-05-13T06:57:21.817Z,102735.16
2019-05-13T06:59:48.738Z,102734.97
2019-05-13T07:02:15.903Z,102732.97
2019-05-13T07:04:43.118Z,102737.14
2019-05-13T07:07:16.124Z,102734.38
2019-05-13T07:09:39.472Z,102737.12
2019-05-13T07:12:06.662Z,102722.56
2019-05-13T07:14:33.773Z,102731.02
2019-05-13T07:17:01.928Z,102724.66
2019-05-13T07:19:31.935Z,102725.28
2019-05-13T07:21:58.756Z,102720.64
2019-05-13T07:24:25.971Z,102728.52
2019-05-13T07:26:53.376Z,102727.84
2019-05-13T07:29:23.888Z,102729.09
2019-05-13T07:31:52.048Z,102715.73
2019-05-13T07:34:18.763Z,102718.10
2019-05-13T07:36:47.069Z,102707.87
2019-05-13T07:39:14.256Z,102711.97
2019-05-13T07:41:43.186Z,102723.66
2019-05-13T07:44:11.832Z,102726.49
2019-05-13T07:46:39.249Z,102737.13
2019-05-13T07:49:06.498Z,102727.97
2019-05-13T07:51:33.716Z,102731.14
2019-05-13T07:54:02.294Z,102722.28
2019-05-13T07:56:32.228Z,102717.48
2019-05-13T07:59:01.503Z,102737.42
2019-05-13T08:01:28.224Z,102726.48
2019-05-13T08:03:55.732Z,102725.95
2019-05-13T08:06:22.802Z,102721.53
2019-05-13T08:08:52.256Z,102719.02
2019-05-13T08:11:19.164Z,102727.95
2019-05-13T08:13:46.385Z,102722.17
2019-05-13T08:16:13.571Z,102723.65
2019-05-13T08:18:43.688Z,102717.70
2019-05-13T08:21:12.247Z,102722.81
2019-05-13T08:23:41.563Z,102709.11
2019-05-13T08:26:08.195Z,102710.20
2019-05-13T08:28:35.396Z,102720.77
2019-05-13T08:31:02.580Z,102714.65
2019-05-13T08:33:32.063Z,102715.94
2019-05-13T08:36:01.438Z,102719.77
2019-05-13T08:38:28.445Z,102722.22
2019-05-13T08:40:55.631Z,102716.90
2019-05-13T08:43:22.837Z,102718.53
2019-05-13T08:45:51.689Z,102701.56
2019-05-13T08:48:22.011Z,102694.63
2019-05-13T08:50:48.042Z,102708.65
2019-05-13T08:53:15.118Z,102702.71
2019-05-13T08:55:42.997Z,102701.48
2019-05-13T08:58:12.566Z,102692.15
2019-05-13T09:00:52.790Z,102690.69
2019-05-13T09:03:21.514Z,102697.70
2019-05-13T09:05:51.977Z,102684.91
2019-05-13T09:08:22.343Z,102689.38
2019-05-13T09:10:51.909Z,102689.41
2019-05-13T09:13:18.579Z,102692.61
2019-05-13T09:15:45.828Z,102677.05
2019-05-13T09:18:13.090Z,102672.58
2019-05-13T09:20:41.612Z,102674.80
2019-05-13T09:23:11.288Z,102667.89
2019-05-13T09:25:38.021Z,102679.23
2019-05-13T09:28:05.205Z,102673.56
2019-05-13T09:30:32.625Z,102680.04
2019-05-13T09:33:01.914Z,102664.08
2019-05-13T09:35:28.724Z,102667.46
2019-05-13T09:37:56.144Z,102666.12
2019-05-13T09:40:23.219Z,102669.98
2019-05-13T09:45:21.570Z,102660.54
2019-05-13T09:47:48.591Z,102666.34
2019-05-13T09:50:28.399Z,102666.02
2019-05-13T09:52:45.532Z,102670.42
2019-05-13T09:55:25.317Z,102657.50
2019-05-13T09:57:41.995Z,102652.91
2019-05-13T10:00:12.115Z,102648.78
2019-05-13T10:02:38.874Z,102655.17
2019-05-13T10:05:06.199Z,102671.22
2019-05-13T10:07:33.407Z,102670.41
2019-05-13T10:10:01.883Z,102663.82
2019-05-13T10:12:31.901Z,102661.20
2019-05-13T10:14:58.875Z,102661.03
2019-05-13T10:17:26.028Z,102666.17
2019-05-13T10:19:53.250Z,102659.62
2019-05-13T10:22:21.877Z,102664.56
2019-05-13T10:24:51.447Z,102658.52
2019-05-13T10:27:19.295Z,102655.23
2019-05-13T10:29:47.155Z,102660.37
2019-05-13T10:32:14.434Z,102669.98
2019-05-13T10:34:42.722Z,102654.25
2019-05-13T10:37:11.319Z,102649.23
2019-05-13T10:39:38.727Z,102656.72
2019-05-13T10:42:05.977Z,102661.98
2019-05-13T10:44:33.265Z,102667.72
2019-05-13T10:47:02.470Z,102655.47
2019-05-13T10:49:32.745Z,102633.94
2019-05-13T10:51:58.755Z,102640.81
2019-05-13T10:54:26.195Z,102650.84
2019-05-13T10:56:58.929Z,102631.20
2019-05-13T10:59:23.145Z,102635.08
2019-05-13T11:01:50.428Z,102642.54
2019-05-13T11:04:17.588Z,102624.17
2019-05-13T11:06:45.010Z,102616.20
2019-05-13T11:09:13.223Z,102620.60
2019-05-13T11:11:41.423Z,102618.20
2019-05-13T11:14:12.859Z,102625.41
2019-05-13T11:16:37.682Z,102602.96
2019-05-13T11:19:04.858Z,102600.95
2019-05-13T11:21:32.374Z,102605.09
2019-05-13T11:24:03.078Z,102602.89
2019-05-13T11:26:29.022Z,102598.17
2019-05-13T11:28:56.278Z,102605.73
2019-05-13T11:31:23.513Z,102589.41
2019-05-13T11:33:52.026Z,102595.97
2019-05-13T11:36:19.597Z,102595.00
2019-05-13T11:38:46.754Z,102600.17
2019-05-13T11:41:13.945Z,102585.59
2019-05-13T11:43:41.543Z,102608.12
2019-05-13T11:46:09.074Z,102601.69
2019-05-13T11:48:36.488Z,102593.32
2019-05-13T11:51:04.449Z,102586.83
2019-05-13T11:53:34.495Z,102586.75
2019-05-13T11:56:03.635Z,102566.49
2019-05-13T11:58:32.480Z,102579.42
2019-05-13T12:01:02.661Z,102584.60
2019-05-13T12:03:32.171Z,102589.47
2019-05-13T12:05:58.308Z,102574.14
2019-05-13T12:08:25.469Z,102583.91
2019-05-13T12:10:52.770Z,102573.31
2019-05-13T12:13:22.661Z,102577.72
2019-05-13T12:15:50.055Z,102563.16
2019-05-13T12:18:18.294Z,102558.08
2019-05-13T12:20:45.767Z,102558.27
2019-05-13T12:23:13.218Z,102554.42
2019-05-13T12:25:43.650Z,102544.06
2019-05-13T12:28:11.380Z,102554.88
2019-05-13T12:30:38.633Z,102543.34
2019-05-13T12:33:07.711Z,102547.41
2019-05-13T12:35:34.949Z,102541.09
2019-05-13T12:38:02.007Z,102541.41
2019-05-13T12:40:33.455Z,102532.56
2019-05-13T12:42:58.243Z,102527.78
2019-05-13T12:45:25.449Z,102538.20
2019-05-13T12:47:53.196Z,102532.88
2019-05-13T12:50:23.511Z,102534.21
2019-05-13T12:52:51.499Z,102531.23
2019-05-13T12:55:18.876Z,102526.13
2019-05-13T12:57:46.144Z,102515.13
2019-05-13T13:00:13.690Z,102517.22
2019-05-13T13:02:48.685Z,102517.33
2019-05-13T13:05:19.654Z,102515.17
2019-05-13T13:07:42.512Z,102512.78
2019-05-13T13:10:14.267Z,102508.85
2019-05-13T13:12:41.926Z,102525.02
2019-05-13T13:15:33.018Z,102501.25
2019-05-13T13:17:37.348Z,102512.77
2019-05-13T13:20:09.410Z,102529.65
2019-05-13T13:22:34.492Z,102507.92
2019-05-13T13:25:04.847Z,102504.53
2019-05-13T13:28:01.942Z,102501.97
2019-05-13T13:30:04.428Z,102507.55
2019-05-13T13:32:32.183Z,102492.39
2019-05-13T13:34:58.206Z,102489.20
2019-05-13T13:37:25.581Z,102496.77
2019-05-13T13:39:55.211Z,102485.73
2019-05-13T13:42:21.925Z,102480.59
2019-05-13T13:44:53.359Z,102475.70
2019-05-13T13:47:18.557Z,102472.69
2019-05-13T13:49:45.853Z,102471.73
2019-05-13T13:52:16.070Z,102471.36
2019-05-13T13:54:44.293Z,102477.78
2019-05-13T13:57:13.486Z,102464.23
2019-05-13T14:00:14.339Z,102489.81
2019-05-13T14:02:13.216Z,102490.63
2019-05-13T14:04:38.572Z,102476.52
2019-05-13T14:07:00.737Z,102667.82
2019-05-13T14:07:22.387Z,102475.62
2019-05-13T14:09:34.942Z,102476.48
2019-05-13T14:12:02.275Z,102464.77
2019-05-13T14:14:31.816Z,102461.22
2019-05-13T14:16:58.488Z,102466.03
2019-05-13T14:19:25.689Z,102457.42
2019-05-13T14:21:52.811Z,102451.73
2019-05-13T14:24:21.635Z,102445.89
2019-05-13T14:26:48.990Z,102431.73
2019-05-13T14:29:16.199Z,102444.61
2019-05-13T14:31:43.555Z,102452.00
2019-05-13T14:34:11.442Z,102457.20
2019-05-13T14:36:39.221Z,102443.53
2019-05-13T14:39:06.481Z,102434.57
2019-05-13T14:41:33.702Z,102423.39
2019-05-13T14:44:03.750Z,102420.83
2019-05-13T14:46:44.025Z,102418.17
2019-05-13T14:49:01.286Z,102421.35
2019-05-13T14:51:28.477Z,102425.98
2019-05-13T14:53:55.677Z,102426.14
2019-05-13T14:56:22.889Z,102425.75
2019-05-13T14:58:52.025Z,102425.21
2019-05-13T15:01:21.822Z,102418.06
2019-05-13T15:03:48.221Z,102413.63
2019-05-13T15:06:15.712Z,102423.80
2019-05-13T15:08:42.965Z,102421.82
2019-05-13T15:11:12.357Z,102424.38
2019-05-13T15:13:39.328Z,102426.77
2019-05-13T15:16:06.504Z,102417.70
2019-05-13T15:18:33.746Z,102414.78
2019-05-13T15:21:01.704Z,102410.88
2019-05-13T15:23:31.469Z,102414.28
2019-05-13T15:25:58.272Z,102421.80
2019-05-13T15:28:25.708Z,102412.47
2019-05-13T15:30:52.905Z,102416.66
2019-05-13T15:33:21.552Z,102414.97
2019-05-13T15:35:48.904Z,102413.64
2019-05-13T15:38:16.084Z,102410.14
2019-05-13T15:40:43.252Z,102410.09
2019-05-13T15:43:11.700Z,102403.44
2019-05-13T15:45:38.865Z,102412.05
2019-05-13T15:48:05.960Z,102400.41
2019-05-13T15:50:33.060Z,102423.37
2019-05-13T15:53:02.848Z,102404.45
2019-05-13T15:55:29.653Z,102402.50
2019-05-13T15:57:56.836Z,102393.95
2019-05-13T16:00:24.005Z,102398.05
2019-05-13T16:02:52.240Z,102396.86
2019-05-13T16:05:19.571Z,102400.42
2019-05-13T16:07:47.042Z,102405.81
2019-05-13T16:10:14.644Z,102397.53
2019-05-13T16:12:41.848Z,102402.48
2019-05-13T16:15:13.107Z,102404.45
2019-05-13T16:17:42.259Z,102397.56
2019-05-13T16:20:08.514Z,102389.13
2019-05-13T16:22:35.729Z,102396.47
2019-05-13T16:25:03.068Z,102399.50
2019-05-13T16:27:31.167Z,102398.16
2019-05-13T16:29:58.377Z,102396.14
2019-05-13T16:32:25.465Z,102393.95
2019-05-13T16:34:52.761Z,102400.02
2019-05-13T16:37:21.998Z,102387.75
2019-05-13T16:39:52.042Z,102385.56
2019-05-13T16:42:22.265Z,102391.05
2019-05-13T16:44:48.679Z,102394.40
2019-05-13T16:47:16.323Z,102382.03
2019-05-13T16:49:43.598Z,102380.43
2019-05-13T16:52:11.748Z,102386.21
2019-05-13T16:54:42.140Z,102376.54
2019-05-13T16:57:08.260Z,102383.36
2019-05-13T16:59:35.385Z,102385.94
2019-05-13T17:02:02.634Z,102390.43
2019-05-13T17:04:31.926Z,102376.87
2019-05-13T17:07:01.334Z,102379.59
2019-05-13T17:09:28.277Z,102388.88
2019-05-13T17:11:55.481Z,102382.66
2019-05-13T17:14:22.565Z,102371.76
2019-05-13T17:16:51.740Z,102376.44
2019-05-13T17:19:18.835Z,102381.61
2019-05-13T17:21:46.293Z,102385.38
2019-05-13T17:24:13.476Z,102389.63
2019-05-13T17:26:41.778Z,102384.05
2019-05-13T17:29:09.147Z,102383.03
2019-05-13T17:31:36.405Z,102373.42
2019-05-13T17:34:03.565Z,102392.02
2019-05-13T17:36:32.502Z,102380.52
2019-05-13T17:39:01.837Z,102376.68
2019-05-13T17:41:29.311Z,102381.81
2019-05-13T17:43:56.523Z,102390.24
2019-05-13T17:46:23.775Z,102381.44
2019-05-13T17:48:52.080Z,102390.97
2019-05-13T17:51:19.357Z,102391.09
2019-05-13T17:53:46.555Z,102384.50
2019-05-13T17:56:13.609Z,102380.02
2019-05-13T17:58:42.045Z,102386.88
2019-05-13T18:01:09.272Z,102378.30
2019-05-13T18:03:36.489Z,102379.66
2019-05-13T18:06:03.704Z,102377.87
2019-05-13T18:08:32.062Z,102371.95
2019-05-13T18:11:01.952Z,102375.00
2019-05-13T18:13:29.017Z,102366.41
2019-05-13T18:15:56.249Z,102369.77
2019-05-13T18:18:38.641Z,102369.11
2019-05-13T18:20:52.607Z,102372.42
2019-05-13T18:23:20.113Z,102376.05
2019-05-13T18:25:47.634Z,102381.25
2019-05-13T18:28:27.633Z,102379.41
2019-05-13T18:30:44.030Z,102381.91
2019-05-13T18:33:11.805Z,102389.57
2019-05-13T18:35:41.703Z,102388.17
2019-05-13T18:38:08.434Z,102378.36
2019-05-13T18:40:35.620Z,102376.84
2019-05-13T18:43:02.709Z,102375.90
2019-05-13T18:45:29.965Z,102373.55
2019-05-13T18:47:57.089Z,102376.85
2019-05-13T18:50:24.376Z,102386.13
2019-05-13T18:52:52.475Z,102383.38
2019-05-13T18:55:20.085Z,102378.73
2019-05-13T18:57:47.252Z,102380.62
2019-05-13T19:00:14.492Z,102380.48
2019-05-13T19:02:41.680Z,102378.17
2019-05-13T19:05:11.712Z,102386.38
2019-05-13T19:07:38.995Z,102385.77
2019-05-13T19:10:06.689Z,102384.52
2019-05-13T19:12:33.929Z,102387.33
2019-05-13T19:15:02.426Z,102387.19
2019-05-13T19:17:32.062Z,102388.77
2019-05-13T19:19:59.180Z,102387.52
2019-05-13T19:22:26.494Z,102392.83
2019-05-13T19:24:53.618Z,102400.42
2019-05-13T19:27:21.598Z,102401.41
2019-05-13T19:29:48.971Z,102391.09
2019-05-13T19:32:16.164Z,102400.16
2019-05-13T19:34:43.355Z,102400.30
2019-05-13T19:37:11.581Z,102394.66
2019-05-13T19:39:39.006Z,102399.19
2019-05-13T19:42:06.193Z,102393.17
2019-05-13T19:44:33.454Z,102396.77
2019-05-13T19:47:01.916Z,102396.47
2019-05-13T19:49:36.673Z,102399.26
2019-05-13T19:52:01.619Z,102399.81
2019-05-13T19:54:28.293Z,102404.65
2019-05-13T19:56:55.478Z,102403.09
2019-05-13T19:59:23.282Z,102400.25
2019-05-13T20:01:51.630Z,102403.20
2019-05-13T20:04:21.693Z,102410.75
2019-05-13T20:06:48.275Z,102410.27
2019-05-13T20:09:15.854Z,102404.86
2019-05-13T20:11:42.992Z,102404.62
2019-05-13T20:14:12.160Z,102401.45
2019-05-13T20:16:41.544Z,102399.26
2019-05-13T20:19:08.336Z,102397.62
2019-05-13T20:21:36.010Z,102397.78
2019-05-13T20:24:03.197Z,102400.66
2019-05-13T20:26:32.240Z,102404.73
2019-05-13T20:29:01.565Z,102399.58
2019-05-13T20:31:29.107Z,102404.41
2019-05-13T20:33:56.538Z,102403.47
2019-05-13T20:36:23.770Z,102406.73
2019-05-13T20:38:51.701Z,102408.07
2019-05-13T20:41:19.210Z,102404.41
2019-05-13T20:43:46.758Z,102410.55
2019-05-13T20:46:13.923Z,102406.20
2019-05-13T20:48:41.274Z,102406.33
2019-05-13T20:51:08.472Z,102409.69
2019-05-13T20:53:35.696Z,102411.16
2019-05-13T20:56:02.919Z,102407.88
2019-05-13T20:58:31.836Z,102407.25
2019-05-13T21:00:59.248Z,102407.34
2019-05-13T21:03:26.416Z,102411.05
2019-05-13T21:05:53.539Z,102409.80
2019-05-13T21:08:21.752Z,102406.45
2019-05-13T21:10:51.575Z,102409.09
2019-05-13T21:13:18.178Z,102410.64
2019-05-13T21:15:45.696Z,102409.09
2019-05-13T21:18:12.839Z,102404.98
2019-05-13T21:20:40.962Z,102402.09
2019-05-13T21:23:08.202Z,102407.39
2019-05-13T21:25:36.742Z,102404.05
2019-05-13T21:28:04.348Z,102396.27
2019-05-13T21:30:31.582Z,102402.47
2019-05-13T21:32:58.662Z,102400.98
2019-05-13T21:35:25.740Z,102401.20
2019-05-13T21:37:52.916Z,102404.38
2019-05-13T21:40:21.683Z,102399.72
2019-05-13T21:42:49.648Z,102404.50
2019-05-13T21:45:16.738Z,102408.52
2019-05-13T21:47:43.824Z,102408.22
2019-05-13T21:50:11.660Z,102404.52
2019-05-13T21:52:41.547Z,102403.32
2019-05-13T21:55:08.432Z,102402.39
2019-05-13T21:57:35.684Z,102403.86
2019-05-13T22:00:06.791Z,102400.25
2019-05-13T22:02:35.411Z,102398.64
2019-05-13T22:05:02.832Z,102409.44
2019-05-13T22:07:31.542Z,102402.26
2019-05-13T22:09:58.805Z,102411.38
2019-05-13T22:12:26.069Z,102409.83
2019-05-13T22:14:53.232Z,102403.78
2019-05-13T22:17:20.430Z,102408.52
2019-05-13T22:19:47.914Z,102407.61
2019-05-13T22:22:14.977Z,102402.62
2019-05-13T22:24:42.238Z,102404.05
2019-05-13T22:27:10.971Z,102404.17
2019-05-13T22:29:38.491Z,102398.13
2019-05-13T22:32:05.767Z,102394.73
2019-05-13T22:34:33.216Z,102397.17
2019-05-13T22:37:02.344Z,102395.59
2019-05-13T22:39:34.471Z,102393.86
2019-05-13T22:42:01.109Z,102396.91
2019-05-13T22:44:28.541Z,102396.06
2019-05-13T22:46:55.742Z,102400.58
2019-05-13T22:49:22.992Z,102392.77
2019-05-13T22:51:51.592Z,102398.64
2019-05-13T22:54:21.098Z,102396.66
2019-05-13T22:56:48.324Z,102403.68
2019-05-13T22:59:15.764Z,102399.16
2019-05-13T23:01:42.924Z,102400.78
2019-05-13T23:04:11.473Z,102398.42
2019-05-13T23:06:38.817Z,102400.40
2019-05-13T23:09:05.858Z,102395.94
2019-05-13T23:11:33.079Z,102396.27
2019-05-13T23:14:09.589Z,102395.01
2019-05-13T23:16:31.477Z,102395.86
2019-05-13T23:18:58.630Z,102394.30
2019-05-13T23:21:25.837Z,102393.05
2019-05-13T23:23:52.990Z,102392.77
2019-05-13T23:26:21.054Z,102388.05
2019-05-13T23:28:48.620Z,102385.53
2019-05-13T23:31:15.794Z,102382.52
2019-05-13T23:33:42.973Z,102384.77
2019-05-13T23:36:12.001Z,102378.05
2019-05-13T23:38:41.385Z,102375.47
2019-05-13T23:41:08.403Z,102369.13
2019-05-13T23:43:35.606Z,102368.01
2019-05-13T23:46:02.779Z,102371.09
2019-05-13T23:48:31.991Z,102367.98
2019-05-13T23:51:01.202Z,102366.91
2019-05-13T23:53:28.119Z,102368.28
2019-05-13T23:55:55.211Z,102362.24
2019-05-13T23:58:22.435Z,102356.45
